Weather at Savé Airport

Public forecast

Using degrees Celsius for public forecast. Weather courtesy of forecast.io.

Closest aviation weather report (METAR) to Savé Airport

Report is more than 6 hours old.

Closest report is Cana Airport, 59.1 nm (109.4 km) SSW. Retrieved 2016/10/18 00:00 UTC (4 years ago):

DBBC 180000Z 21006KT 9999 FEW012 27/24 Q1011 NOSIG

Closest aviation forecast (TAF) to Savé Airport

Forecast is more than 12 hours old.

Closest forecast is Cana Airport, 59.1 nm (109.4 km) SSW. Retrieved 2016/10/04 12:00 UTC (4 years ago):

TAF DBBC 041100Z 0412/0518 22010KT 9999 SCT012 TEMQO 0414/0420 TS BKN012 FEW023CB TEMPO 0504/0509 BKN011